sensor_id;sensor_type;location;lat;lon;timestamp;temperature;humidity
66184;DHT22;52989;48.796;9.806;2022-07-06T00:01:00;15.00;99.90
66184;DHT22;52989;48.796;9.806;2022-07-06T00:03:25;14.90;99.90
66184;DHT22;52989;48.796;9.806;2022-07-06T00:05:51;14.90;99.90
66184;DHT22;52989;48.796;9.806;2022-07-06T00:08:17;14.50;99.90
66184;DHT22;52989;48.796;9.806;2022-07-06T00:10:42;15.20;99.90
66184;DHT22;52989;48.796;9.806;2022-07-06T00:13:09;14.80;99.90
66184;DHT22;52989;48.796;9.806;2022-07-06T00:15:34;14.40;99.90
66184;DHT22;52989;48.796;9.806;2022-07-06T00:18:00;14.20;99.90
66184;DHT22;52989;48.796;9.806;2022-07-06T00:20:26;14.90;99.90
66184;DHT22;52989;48.796;9.806;2022-07-06T00:22:52;14.90;99.90
66184;DHT22;52989;48.796;9.806;2022-07-06T00:25:17;14.70;99.90
66184;DHT22;52989;48.796;9.806;2022-07-06T00:27:43;14.50;99.90
66184;DHT22;52989;48.796;9.806;2022-07-06T00:30:09;14.20;99.90
66184;DHT22;52989;48.796;9.806;2022-07-06T00:32:34;14.40;99.90
66184;DHT22;52989;48.796;9.806;2022-07-06T00:35:00;14.20;99.90
66184;DHT22;52989;48.796;9.806;2022-07-06T00:37:25;14.10;99.90
66184;DHT22;52989;48.796;9.806;2022-07-06T00:39:51;14.00;99.90
66184;DHT22;52989;48.796;9.806;2022-07-06T00:42:16;13.90;99.90
66184;DHT22;52989;48.796;9.806;2022-07-06T00:44:42;13.90;99.90
66184;DHT22;52989;48.796;9.806;2022-07-06T00:47:07;13.90;99.90
66184;DHT22;52989;48.796;9.806;2022-07-06T00:49:34;14.10;99.90
66184;DHT22;52989;48.796;9.806;2022-07-06T00:52:18;14.80;99.90
66184;DHT22;52989;48.796;9.806;2022-07-06T00:54:44;15.20;99.90
66184;DHT22;52989;48.796;9.806;2022-07-06T00:57:10;14.70;99.90
66184;DHT22;52989;48.796;9.806;2022-07-06T00:59:36;14.40;99.90
66184;DHT22;52989;48.796;9.806;2022-07-06T01:02:02;14.10;99.90
66184;DHT22;52989;48.796;9.806;2022-07-06T01:04:28;14.00;99.90
66184;DHT22;52989;48.796;9.806;2022-07-06T01:06:54;14.10;99.90
66184;DHT22;52989;48.796;9.806;2022-07-06T01:09:21;14.10;99.90
66184;DHT22;52989;48.796;9.806;2022-07-06T01:11:46;14.00;99.90
66184;DHT22;52989;48.796;9.806;2022-07-06T01:14:14;14.00;99.90
66184;DHT22;52989;48.796;9.806;2022-07-06T01:16:39;13.70;99.90
66184;DHT22;52989;48.796;9.806;2022-07-06T01:19:05;13.70;99.90
66184;DHT22;52989;48.796;9.806;2022-07-06T01:21:30;13.70;99.90
66184;DHT22;52989;48.796;9.806;2022-07-06T01:23:56;13.70;99.90
66184;DHT22;52989;48.796;9.806;2022-07-06T01:26:22;13.60;99.90
66184;DHT22;52989;48.796;9.806;2022-07-06T01:28:50;13.50;99.90
66184;DHT22;52989;48.796;9.806;2022-07-06T01:31:22;13.30;99.90
66184;DHT22;52989;48.796;9.806;2022-07-06T01:33:49;13.30;99.90
66184;DHT22;52989;48.796;9.806;2022-07-06T01:36:16;13.30;99.90
66184;DHT22;52989;48.796;9.806;2022-07-06T01:41:14;13.10;99.90
66184;DHT22;52989;48.796;9.806;2022-07-06T01:43:40;13.00;99.90
66184;DHT22;52989;48.796;9.806;2022-07-06T01:46:06;13.00;99.90
66184;DHT22;52989;48.796;9.806;2022-07-06T01:48:31;13.00;99.90
66184;DHT22;52989;48.796;9.806;2022-07-06T01:50:57;13.60;99.90
66184;DHT22;52989;48.796;9.806;2022-07-06T01:53:23;13.40;99.90
66184;DHT22;52989;48.796;9.806;2022-07-06T01:55:48;13.70;99.90
66184;DHT22;52989;48.796;9.806;2022-07-06T01:58:14;14.10;99.90
66184;DHT22;52989;48.796;9.806;2022-07-06T02:00:40;13.40;99.90
66184;DHT22;52989;48.796;9.806;2022-07-06T02:03:06;13.00;99.90
66184;DHT22;52989;48.796;9.806;2022-07-06T02:05:31;13.40;99.90
66184;DHT22;52989;48.796;9.806;2022-07-06T02:07:57;13.90;99.90
66184;DHT22;52989;48.796;9.806;2022-07-06T02:10:22;13.10;99.90
66184;DHT22;52989;48.796;9.806;2022-07-06T02:12:48;14.00;99.90
66184;DHT22;52989;48.796;9.806;2022-07-06T02:15:13;14.50;99.90
66184;DHT22;52989;48.796;9.806;2022-07-06T02:17:39;13.50;99.90
66184;DHT22;52989;48.796;9.806;2022-07-06T02:20:05;13.10;99.90
66184;DHT22;52989;48.796;9.806;2022-07-06T02:22:31;13.00;99.90
66184;DHT22;52989;48.796;9.806;2022-07-06T02:24:57;12.70;99.90
66184;DHT22;52989;48.796;9.806;2022-07-06T02:27:22;12.60;99.90
66184;DHT22;52989;48.796;9.806;2022-07-06T02:29:48;12.70;99.90
66184;DHT22;52989;48.796;9.806;2022-07-06T02:32:14;12.60;99.90
66184;DHT22;52989;48.796;9.806;2022-07-06T02:34:39;12.50;99.90
66184;DHT22;52989;48.796;9.806;2022-07-06T02:37:05;12.60;99.90
66184;DHT22;52989;48.796;9.806;2022-07-06T02:39:31;12.50;99.90
66184;DHT22;52989;48.796;9.806;2022-07-06T02:41:56;12.60;99.90
66184;DHT22;52989;48.796;9.806;2022-07-06T02:44:22;13.00;99.90
66184;DHT22;52989;48.796;9.806;2022-07-06T02:46:47;12.90;99.90
66184;DHT22;52989;48.796;9.806;2022-07-06T02:49:13;12.60;99.90
66184;DHT22;52989;48.796;9.806;2022-07-06T02:51:38;12.50;99.90
66184;DHT22;52989;48.796;9.806;2022-07-06T02:54:04;12.60;99.90
66184;DHT22;52989;48.796;9.806;2022-07-06T02:56:29;12.40;99.90
66184;DHT22;52989;48.796;9.806;2022-07-06T02:58:55;12.40;99.90
66184;DHT22;52989;48.796;9.806;2022-07-06T03:01:21;12.40;99.90
66184;DHT22;52989;48.796;9.806;2022-07-06T03:03:46;12.30;99.90
66184;DHT22;52989;48.796;9.806;2022-07-06T03:06:12;12.30;99.90
66184;DHT22;52989;48.796;9.806;2022-07-06T03:08:37;12.20;99.90
66184;DHT22;52989;48.796;9.806;2022-07-06T03:11:03;12.20;99.90
66184;DHT22;52989;48.796;9.806;2022-07-06T03:13:28;12.20;99.90
66184;DHT22;52989;48.796;9.806;2022-07-06T03:15:55;12.10;99.90
66184;DHT22;52989;48.796;9.806;2022-07-06T03:18:20;12.10;99.90
66184;DHT22;52989;48.796;9.806;2022-07-06T03:20:46;12.30;99.90
66184;DHT22;52989;48.796;9.806;2022-07-06T03:23:12;12.30;99.90
66184;DHT22;52989;48.796;9.806;2022-07-06T03:25:37;12.20;99.90
66184;DHT22;52989;48.796;9.806;2022-07-06T03:28:03;12.10;99.90
66184;DHT22;52989;48.796;9.806;2022-07-06T03:30:29;12.10;99.90
66184;DHT22;52989;48.796;9.806;2022-07-06T03:32:54;12.20;99.90
66184;DHT22;52989;48.796;9.806;2022-07-06T03:35:20;12.10;99.90
66184;DHT22;52989;48.796;9.806;2022-07-06T03:37:45;12.10;99.90
66184;DHT22;52989;48.796;9.806;2022-07-06T03:40:11;12.10;99.90
66184;DHT22;52989;48.796;9.806;2022-07-06T03:42:37;12.20;99.90
66184;DHT22;52989;48.796;9.806;2022-07-06T03:45:04;12.20;99.90
66184;DHT22;52989;48.796;9.806;2022-07-06T03:47:30;12.10;99.90
66184;DHT22;52989;48.796;9.806;2022-07-06T03:49:56;12.10;99.90
66184;DHT22;52989;48.796;9.806;2022-07-06T03:52:21;12.20;99.90
66184;DHT22;52989;48.796;9.806;2022-07-06T03:54:47;12.20;99.90
66184;DHT22;52989;48.796;9.806;2022-07-06T03:57:13;12.40;99.90
66184;DHT22;52989;48.796;9.806;2022-07-06T03:59:39;12.30;99.90
66184;DHT22;52989;48.796;9.806;2022-07-06T04:02:05;12.30;99.90
66184;DHT22;52989;48.796;9.806;2022-07-06T04:04:31;12.30;99.90
66184;DHT22;52989;48.796;9.806;2022-07-06T04:06:56;12.20;99.90
66184;DHT22;52989;48.796;9.806;2022-07-06T04:09:22;12.20;99.90
66184;DHT22;52989;48.796;9.806;2022-07-06T04:11:48;12.20;99.90
66184;DHT22;52989;48.796;9.806;2022-07-06T04:14:13;12.30;99.90
66184;DHT22;52989;48.796;9.806;2022-07-06T04:16:39;12.30;99.90
66184;DHT22;52989;48.796;9.806;2022-07-06T04:19:04;12.30;99.90
66184;DHT22;52989;48.796;9.806;2022-07-06T04:21:30;12.30;99.90
66184;DHT22;52989;48.796;9.806;2022-07-06T04:23:56;12.20;99.90
66184;DHT22;52989;48.796;9.806;2022-07-06T04:26:21;12.20;99.90
66184;DHT22;52989;48.796;9.806;2022-07-06T04:28:47;12.20;99.90
66184;DHT22;52989;48.796;9.806;2022-07-06T04:31:12;12.10;99.90
66184;DHT22;52989;48.796;9.806;2022-07-06T04:33:41;12.20;99.90
66184;DHT22;52989;48.796;9.806;2022-07-06T04:36:07;12.20;99.90
66184;DHT22;52989;48.796;9.806;2022-07-06T04:38:33;12.30;99.90
66184;DHT22;52989;48.796;9.806;2022-07-06T04:40:58;12.30;99.90
66184;DHT22;52989;48.796;9.806;2022-07-06T04:43:24;12.30;99.90
66184;DHT22;52989;48.796;9.806;2022-07-06T04:45:50;12.40;99.90
66184;DHT22;52989;48.796;9.806;2022-07-06T04:48:15;12.50;99.90
66184;DHT22;52989;48.796;9.806;2022-07-06T04:50:41;12.80;99.90
66184;DHT22;52989;48.796;9.806;2022-07-06T04:53:06;13.10;99.90
66184;DHT22;52989;48.796;9.806;2022-07-06T04:55:32;13.50;99.90
66184;DHT22;52989;48.796;9.806;2022-07-06T04:57:57;14.10;99.90
66184;DHT22;52989;48.796;9.806;2022-07-06T05:00:23;14.80;99.90
66184;DHT22;52989;48.796;9.806;2022-07-06T05:02:49;14.90;99.90
66184;DHT22;52989;48.796;9.806;2022-07-06T05:05:15;15.10;99.90
66184;DHT22;52989;48.796;9.806;2022-07-06T05:07:40;15.20;99.90
66184;DHT22;52989;48.796;9.806;2022-07-06T05:10:08;15.20;99.90
66184;DHT22;52989;48.796;9.806;2022-07-06T05:12:34;14.90;99.90
66184;DHT22;52989;48.796;9.806;2022-07-06T05:15:00;14.60;99.90
66184;DHT22;52989;48.796;9.806;2022-07-06T05:17:25;14.80;99.90
66184;DHT22;52989;48.796;9.806;2022-07-06T05:19:51;14.90;99.90
66184;DHT22;52989;48.796;9.806;2022-07-06T05:22:17;14.60;99.90
66184;DHT22;52989;48.796;9.806;2022-07-06T05:24:43;14.30;99.90
66184;DHT22;52989;48.796;9.806;2022-07-06T05:27:08;14.00;99.90
66184;DHT22;52989;48.796;9.806;2022-07-06T05:29:34;13.90;99.90
66184;DHT22;52989;48.796;9.806;2022-07-06T05:31:59;14.00;99.90
66184;DHT22;52989;48.796;9.806;2022-07-06T05:34:25;14.40;99.90
66184;DHT22;52989;48.796;9.806;2022-07-06T05:36:51;14.40;99.90
66184;DHT22;52989;48.796;9.806;2022-07-06T05:39:16;14.50;99.90
66184;DHT22;52989;48.796;9.806;2022-07-06T05:41:45;14.60;99.90
66184;DHT22;52989;48.796;9.806;2022-07-06T05:44:11;15.00;99.90
66184;DHT22;52989;48.796;9.806;2022-07-06T05:46:37;15.00;99.90
66184;DHT22;52989;48.796;9.806;2022-07-06T05:49:02;15.10;99.90
66184;DHT22;52989;48.796;9.806;2022-07-06T05:51:46;15.20;99.90
66184;DHT22;52989;48.796;9.806;2022-07-06T05:54:12;14.90;99.90
66184;DHT22;52989;48.796;9.806;2022-07-06T05:56:38;14.90;99.90
66184;DHT22;52989;48.796;9.806;2022-07-06T05:59:04;15.20;99.90
66184;DHT22;52989;48.796;9.806;2022-07-06T06:01:29;15.00;99.90
66184;DHT22;52989;48.796;9.806;2022-07-06T06:03:55;15.00;99.90
66184;DHT22;52989;48.796;9.806;2022-07-06T06:06:21;15.00;99.90
66184;DHT22;52989;48.796;9.806;2022-07-06T06:08:46;15.10;99.90
66184;DHT22;52989;48.796;9.806;2022-07-06T06:11:12;15.10;99.90
66184;DHT22;52989;48.796;9.806;2022-07-06T06:13:37;15.00;99.90
66184;DHT22;52989;48.796;9.806;2022-07-06T06:16:03;15.30;99.90
66184;DHT22;52989;48.796;9.806;2022-07-06T06:18:29;15.40;99.90
66184;DHT22;52989;48.796;9.806;2022-07-06T06:20:54;15.30;99.90
66184;DHT22;52989;48.796;9.806;2022-07-06T06:23:20;15.30;99.90
66184;DHT22;52989;48.796;9.806;2022-07-06T06:25:45;15.20;99.90
66184;DHT22;52989;48.796;9.806;2022-07-06T06:28:11;15.30;99.90
66184;DHT22;52989;48.796;9.806;2022-07-06T06:30:38;15.40;99.90
66184;DHT22;52989;48.796;9.806;2022-07-06T06:35:32;15.80;99.90
66184;DHT22;52989;48.796;9.806;2022-07-06T06:37:57;15.90;99.90
66184;DHT22;52989;48.796;9.806;2022-07-06T06:40:23;15.90;99.90
66184;DHT22;52989;48.796;9.806;2022-07-06T06:42:49;15.80;99.90
66184;DHT22;52989;48.796;9.806;2022-07-06T06:45:14;16.00;99.90
66184;DHT22;52989;48.796;9.806;2022-07-06T06:47:40;16.10;99.90
66184;DHT22;52989;48.796;9.806;2022-07-06T06:50:06;16.10;99.90
66184;DHT22;52989;48.796;9.806;2022-07-06T06:52:31;16.70;99.90
66184;DHT22;52989;48.796;9.806;2022-07-06T06:54:57;16.90;99.90
66184;DHT22;52989;48.796;9.806;2022-07-06T06:57:22;16.70;98.10
66184;DHT22;52989;48.796;9.806;2022-07-06T06:59:48;16.70;97.40
66184;DHT22;52989;48.796;9.806;2022-07-06T07:02:13;16.60;95.90
66184;DHT22;52989;48.796;9.806;2022-07-06T07:04:39;16.70;98.60
66184;DHT22;52989;48.796;9.806;2022-07-06T07:07:05;16.90;95.90
66184;DHT22;52989;48.796;9.806;2022-07-06T07:09:30;16.80;96.50
66184;DHT22;52989;48.796;9.806;2022-07-06T07:11:56;17.00;95.30
66184;DHT22;52989;48.796;9.806;2022-07-06T07:14:23;16.90;98.60
66184;DHT22;52989;48.796;9.806;2022-07-06T07:16:48;17.10;94.40
66184;DHT22;52989;48.796;9.806;2022-07-06T07:19:14;17.10;94.40
66184;DHT22;52989;48.796;9.806;2022-07-06T07:21:39;17.20;92.40
66184;DHT22;52989;48.796;9.806;2022-07-06T07:24:05;17.40;92.70
66184;DHT22;52989;48.796;9.806;2022-07-06T07:26:32;17.70;92.00
66184;DHT22;52989;48.796;9.806;2022-07-06T07:28:58;17.70;91.30
66184;DHT22;52989;48.796;9.806;2022-07-06T07:31:24;17.70;88.30
66184;DHT22;52989;48.796;9.806;2022-07-06T07:33:49;17.70;91.40
66184;DHT22;52989;48.796;9.806;2022-07-06T07:36:15;17.60;92.50
66184;DHT22;52989;48.796;9.806;2022-07-06T07:38:41;17.70;92.90
66184;DHT22;52989;48.796;9.806;2022-07-06T07:41:06;17.90;90.50
66184;DHT22;52989;48.796;9.806;2022-07-06T07:43:32;17.80;91.90
66184;DHT22;52989;48.796;9.806;2022-07-06T07:45:57;17.80;91.30
66184;DHT22;52989;48.796;9.806;2022-07-06T07:48:23;18.10;87.90
66184;DHT22;52989;48.796;9.806;2022-07-06T07:50:49;18.10;87.00
66184;DHT22;52989;48.796;9.806;2022-07-06T07:53:14;18.00;90.50
66184;DHT22;52989;48.796;9.806;2022-07-06T07:55:40;18.00;92.20
66184;DHT22;52989;48.796;9.806;2022-07-06T07:58:05;18.00;90.40
66184;DHT22;52989;48.796;9.806;2022-07-06T08:00:31;18.40;90.00
66184;DHT22;52989;48.796;9.806;2022-07-06T08:02:57;18.60;89.50
66184;DHT22;52989;48.796;9.806;2022-07-06T08:05:22;19.30;83.30
66184;DHT22;52989;48.796;9.806;2022-07-06T08:07:48;19.40;84.10
66184;DHT22;52989;48.796;9.806;2022-07-06T08:10:13;19.70;78.30
66184;DHT22;52989;48.796;9.806;2022-07-06T08:12:39;19.10;77.60
66184;DHT22;52989;48.796;9.806;2022-07-06T08:15:05;19.30;79.00
66184;DHT22;52989;48.796;9.806;2022-07-06T08:17:31;19.70;76.90
66184;DHT22;52989;48.796;9.806;2022-07-06T08:19:57;19.40;74.60
66184;DHT22;52989;48.796;9.806;2022-07-06T08:22:23;19.60;77.60
66184;DHT22;52989;48.796;9.806;2022-07-06T08:24:49;19.30;78.70
66184;DHT22;52989;48.796;9.806;2022-07-06T08:27:14;19.10;80.40
66184;DHT22;52989;48.796;9.806;2022-07-06T08:29:40;19.20;80.30
66184;DHT22;52989;48.796;9.806;2022-07-06T08:32:06;19.60;80.10
66184;DHT22;52989;48.796;9.806;2022-07-06T08:34:31;20.10;75.70
66184;DHT22;52989;48.796;9.806;2022-07-06T08:36:57;20.00;73.80
66184;DHT22;52989;48.796;9.806;2022-07-06T08:39:23;20.40;72.90
66184;DHT22;52989;48.796;9.806;2022-07-06T08:41:49;20.20;75.50
66184;DHT22;52989;48.796;9.806;2022-07-06T08:44:16;20.00;73.10
66184;DHT22;52989;48.796;9.806;2022-07-06T08:46:43;20.40;73.00
66184;DHT22;52989;48.796;9.806;2022-07-06T08:49:13;20.80;73.20
66184;DHT22;52989;48.796;9.806;2022-07-06T08:51:40;21.00;72.40
66184;DHT22;52989;48.796;9.806;2022-07-06T08:54:07;20.80;71.60
66184;DHT22;52989;48.796;9.806;2022-07-06T08:56:33;20.50;70.30
66184;DHT22;52989;48.796;9.806;2022-07-06T08:58:59;21.10;69.80
66184;DHT22;52989;48.796;9.806;2022-07-06T09:01:25;21.10;68.10
66184;DHT22;52989;48.796;9.806;2022-07-06T09:03:51;20.70;70.80
66184;DHT22;52989;48.796;9.806;2022-07-06T09:06:24;20.90;69.10
66184;DHT22;52989;48.796;9.806;2022-07-06T09:08:53;21.50;70.00
66184;DHT22;52989;48.796;9.806;2022-07-06T09:11:21;21.90;67.50
66184;DHT22;52989;48.796;9.806;2022-07-06T09:13:47;22.00;66.30
66184;DHT22;52989;48.796;9.806;2022-07-06T09:16:14;21.50;67.50
66184;DHT22;52989;48.796;9.806;2022-07-06T09:18:44;21.10;69.10
66184;DHT22;52989;48.796;9.806;2022-07-06T09:21:09;21.00;70.10
66184;DHT22;52989;48.796;9.806;2022-07-06T09:23:36;21.40;66.80
66184;DHT22;52989;48.796;9.806;2022-07-06T09:26:03;21.60;65.80
66184;DHT22;52989;48.796;9.806;2022-07-06T09:28:45;21.60;63.00
66184;DHT22;52989;48.796;9.806;2022-07-06T09:31:11;22.30;63.20
66184;DHT22;52989;48.796;9.806;2022-07-06T09:33:38;22.00;64.90
66184;DHT22;52989;48.796;9.806;2022-07-06T09:36:05;21.40;63.30
66184;DHT22;52989;48.796;9.806;2022-07-06T09:38:31;21.90;65.40
66184;DHT22;52989;48.796;9.806;2022-07-06T09:40:57;22.50;62.30
66184;DHT22;52989;48.796;9.806;2022-07-06T09:43:24;22.80;62.70
66184;DHT22;52989;48.796;9.806;2022-07-06T09:45:52;22.50;62.60
66184;DHT22;52989;48.796;9.806;2022-07-06T09:48:23;22.20;62.40
66184;DHT22;52989;48.796;9.806;2022-07-06T09:50:50;22.70;62.40
66184;DHT22;52989;48.796;9.806;2022-07-06T09:53:17;23.10;61.70
66184;DHT22;52989;48.796;9.806;2022-07-06T09:55:50;22.70;59.20
66184;DHT22;52989;48.796;9.806;2022-07-06T09:58:17;23.00;62.10
66184;DHT22;52989;48.796;9.806;2022-07-06T10:00:46;23.20;59.80
66184;DHT22;52989;48.796;9.806;2022-07-06T10:03:13;22.70;61.90
66184;DHT22;52989;48.796;9.806;2022-07-06T10:05:41;22.90;60.90
66184;DHT22;52989;48.796;9.806;2022-07-06T10:08:08;22.70;62.40
66184;DHT22;52989;48.796;9.806;2022-07-06T10:10:39;22.70;62.70
66184;DHT22;52989;48.796;9.806;2022-07-06T10:13:05;22.90;62.00
66184;DHT22;52989;48.796;9.806;2022-07-06T10:15:32;23.10;60.40
66184;DHT22;52989;48.796;9.806;2022-07-06T10:18:00;23.00;59.70
66184;DHT22;52989;48.796;9.806;2022-07-06T10:20:31;22.70;63.10
66184;DHT22;52989;48.796;9.806;2022-07-06T10:22:59;22.50;61.90
66184;DHT22;52989;48.796;9.806;2022-07-06T10:25:25;23.00;61.20
66184;DHT22;52989;48.796;9.806;2022-07-06T10:27:51;22.90;58.70
66184;DHT22;52989;48.796;9.806;2022-07-06T10:30:17;23.30;59.90
66184;DHT22;52989;48.796;9.806;2022-07-06T10:32:46;23.80;60.00
66184;DHT22;52989;48.796;9.806;2022-07-06T10:35:13;24.10;58.70
66184;DHT22;52989;48.796;9.806;2022-07-06T10:37:39;24.30;59.60
66184;DHT22;52989;48.796;9.806;2022-07-06T10:40:05;24.20;56.80
66184;DHT22;52989;48.796;9.806;2022-07-06T10:42:57;23.80;59.00
66184;DHT22;52989;48.796;9.806;2022-07-06T10:48:18;25.10;56.60
66184;DHT22;52989;48.796;9.806;2022-07-06T10:53:23;24.60;57.30
66184;DHT22;52989;48.796;9.806;2022-07-06T10:55:51;24.10;57.30
66184;DHT22;52989;48.796;9.806;2022-07-06T10:58:36;24.90;56.10
66184;DHT22;52989;48.796;9.806;2022-07-06T11:01:03;24.90;56.00
66184;DHT22;52989;48.796;9.806;2022-07-06T11:03:38;24.20;52.40
66184;DHT22;52989;48.796;9.806;2022-07-06T11:11:26;23.60;54.90
66184;DHT22;52989;48.796;9.806;2022-07-06T11:14:14;23.60;56.40
66184;DHT22;52989;48.796;9.806;2022-07-06T11:17:00;23.70;56.50
66184;DHT22;52989;48.796;9.806;2022-07-06T11:19:29;24.10;55.60
66184;DHT22;52989;48.796;9.806;2022-07-06T11:21:57;23.80;56.40
66184;DHT22;52989;48.796;9.806;2022-07-06T11:24:27;23.80;55.90
66184;DHT22;52989;48.796;9.806;2022-07-06T11:26:54;23.80;56.50
66184;DHT22;52989;48.796;9.806;2022-07-06T11:29:21;23.70;56.50
66184;DHT22;52989;48.796;9.806;2022-07-06T11:31:49;24.30;56.50
66184;DHT22;52989;48.796;9.806;2022-07-06T11:37:07;24.70;55.30
66184;DHT22;52989;48.796;9.806;2022-07-06T11:39:35;23.80;56.50
66184;DHT22;52989;48.796;9.806;2022-07-06T11:42:03;24.50;56.00
66184;DHT22;52989;48.796;9.806;2022-07-06T11:44:32;25.10;54.00
66184;DHT22;52989;48.796;9.806;2022-07-06T11:46:58;24.90;55.50
66184;DHT22;52989;48.796;9.806;2022-07-06T11:49:27;25.10;52.70
66184;DHT22;52989;48.796;9.806;2022-07-06T11:51:53;25.50;55.00
66184;DHT22;52989;48.796;9.806;2022-07-06T11:54:20;24.90;53.50
66184;DHT22;52989;48.796;9.806;2022-07-06T11:56:57;24.50;54.70
66184;DHT22;52989;48.796;9.806;2022-07-06T11:59:28;24.40;54.70
66184;DHT22;52989;48.796;9.806;2022-07-06T12:02:08;24.30;55.60
66184;DHT22;52989;48.796;9.806;2022-07-06T12:04:35;23.80;54.00
66184;DHT22;52989;48.796;9.806;2022-07-06T12:07:03;24.00;55.50
66184;DHT22;52989;48.796;9.806;2022-07-06T12:09:33;24.10;54.40
66184;DHT22;52989;48.796;9.806;2022-07-06T12:11:59;23.90;55.40
66184;DHT22;52989;48.796;9.806;2022-07-06T12:14:29;23.90;55.10
66184;DHT22;52989;48.796;9.806;2022-07-06T12:16:55;23.50;53.90
66184;DHT22;52989;48.796;9.806;2022-07-06T12:19:24;23.50;54.20
66184;DHT22;52989;48.796;9.806;2022-07-06T12:21:51;24.00;53.50
66184;DHT22;52989;48.796;9.806;2022-07-06T12:24:24;24.40;56.40
66184;DHT22;52989;48.796;9.806;2022-07-06T12:26:52;24.70;52.50
66184;DHT22;52989;48.796;9.806;2022-07-06T12:29:19;24.90;55.30
66184;DHT22;52989;48.796;9.806;2022-07-06T12:34:23;24.50;53.00
66184;DHT22;52989;48.796;9.806;2022-07-06T12:36:54;24.90;52.10
66184;DHT22;52989;48.796;9.806;2022-07-06T12:39:27;24.60;52.10
66184;DHT22;52989;48.796;9.806;2022-07-06T12:41:55;24.30;52.90
66184;DHT22;52989;48.796;9.806;2022-07-06T12:44:25;24.40;53.30
66184;DHT22;52989;48.796;9.806;2022-07-06T12:47:05;24.40;53.40
66184;DHT22;52989;48.796;9.806;2022-07-06T12:49:31;24.60;53.00
66184;DHT22;52989;48.796;9.806;2022-07-06T12:52:16;25.00;51.30
66184;DHT22;52989;48.796;9.806;2022-07-06T12:54:51;24.90;52.90
66184;DHT22;52989;48.796;9.806;2022-07-06T12:57:21;24.50;52.30
66184;DHT22;52989;48.796;9.806;2022-07-06T12:59:55;24.30;52.30
66184;DHT22;52989;48.796;9.806;2022-07-06T13:05:11;24.20;52.70
66184;DHT22;52989;48.796;9.806;2022-07-06T13:07:38;24.00;53.00
66184;DHT22;52989;48.796;9.806;2022-07-06T13:10:07;24.30;53.40
66184;DHT22;52989;48.796;9.806;2022-07-06T13:12:33;24.40;52.50
66184;DHT22;52989;48.796;9.806;2022-07-06T13:14:59;24.70;53.90
66184;DHT22;52989;48.796;9.806;2022-07-06T13:17:24;24.80;51.70
66184;DHT22;52989;48.796;9.806;2022-07-06T13:19:50;24.90;53.40
66184;DHT22;52989;48.796;9.806;2022-07-06T13:22:16;24.40;53.70
66184;DHT22;52989;48.796;9.806;2022-07-06T13:24:42;24.60;52.60
66184;DHT22;52989;48.796;9.806;2022-07-06T13:27:08;24.30;53.10
66184;DHT22;52989;48.796;9.806;2022-07-06T13:29:34;24.00;53.20
66184;DHT22;52989;48.796;9.806;2022-07-06T13:32:00;23.60;54.10
66184;DHT22;52989;48.796;9.806;2022-07-06T13:34:26;23.70;54.70
66184;DHT22;52989;48.796;9.806;2022-07-06T13:36:52;23.70;55.20
66184;DHT22;52989;48.796;9.806;2022-07-06T13:39:18;23.50;55.40
66184;DHT22;52989;48.796;9.806;2022-07-06T13:41:44;23.70;56.00
66184;DHT22;52989;48.796;9.806;2022-07-06T13:44:10;23.50;55.20
66184;DHT22;52989;48.796;9.806;2022-07-06T13:46:37;23.40;55.50
66184;DHT22;52989;48.796;9.806;2022-07-06T13:49:03;23.70;56.40
66184;DHT22;52989;48.796;9.806;2022-07-06T13:51:29;23.90;55.40
66184;DHT22;52989;48.796;9.806;2022-07-06T13:53:56;23.90;55.10
66184;DHT22;52989;48.796;9.806;2022-07-06T13:56:22;24.40;56.40
66184;DHT22;52989;48.796;9.806;2022-07-06T13:58:48;24.90;56.20
66184;DHT22;52989;48.796;9.806;2022-07-06T14:01:13;24.90;53.70
66184;DHT22;52989;48.796;9.806;2022-07-06T14:03:39;25.30;54.10
66184;DHT22;52989;48.796;9.806;2022-07-06T14:06:06;24.70;53.60
66184;DHT22;52989;48.796;9.806;2022-07-06T14:08:33;24.20;55.50
66184;DHT22;52989;48.796;9.806;2022-07-06T14:10:59;24.00;55.30
66184;DHT22;52989;48.796;9.806;2022-07-06T14:13:26;23.70;55.40
66184;DHT22;52989;48.796;9.806;2022-07-06T14:15:52;23.70;55.70
66184;DHT22;52989;48.796;9.806;2022-07-06T14:18:18;24.20;55.40
66184;DHT22;52989;48.796;9.806;2022-07-06T14:20:47;24.30;54.60
66184;DHT22;52989;48.796;9.806;2022-07-06T14:23:14;24.40;54.90
66184;DHT22;52989;48.796;9.806;2022-07-06T14:25:40;24.40;55.40
66184;DHT22;52989;48.796;9.806;2022-07-06T14:28:06;24.20;54.70
66184;DHT22;52989;48.796;9.806;2022-07-06T14:30:34;24.10;55.40
66184;DHT22;52989;48.796;9.806;2022-07-06T14:33:03;24.20;54.50
66184;DHT22;52989;48.796;9.806;2022-07-06T14:35:48;23.90;55.50
66184;DHT22;52989;48.796;9.806;2022-07-06T14:38:15;24.20;55.70
66184;DHT22;52989;48.796;9.806;2022-07-06T14:40:41;24.10;54.60
66184;DHT22;52989;48.796;9.806;2022-07-06T14:43:07;24.20;55.40
66184;DHT22;52989;48.796;9.806;2022-07-06T14:45:33;24.20;55.80
66184;DHT22;52989;48.796;9.806;2022-07-06T14:47:59;24.50;55.50
66184;DHT22;52989;48.796;9.806;2022-07-06T14:50:24;24.60;55.50
66184;DHT22;52989;48.796;9.806;2022-07-06T14:52:51;24.60;54.90
66184;DHT22;52989;48.796;9.806;2022-07-06T14:55:17;24.60;55.00
66184;DHT22;52989;48.796;9.806;2022-07-06T14:57:43;24.60;54.80
66184;DHT22;52989;48.796;9.806;2022-07-06T15:00:09;24.10;54.30
66184;DHT22;52989;48.796;9.806;2022-07-06T15:02:35;24.30;55.40
66184;DHT22;52989;48.796;9.806;2022-07-06T15:05:01;24.40;54.90
66184;DHT22;52989;48.796;9.806;2022-07-06T15:07:27;24.70;53.90
66184;DHT22;52989;48.796;9.806;2022-07-06T15:09:52;24.70;54.30
66184;DHT22;52989;48.796;9.806;2022-07-06T15:12:18;24.80;55.80
66184;DHT22;52989;48.796;9.806;2022-07-06T15:14:43;24.20;53.80
66184;DHT22;52989;48.796;9.806;2022-07-06T15:17:09;24.30;55.30
66184;DHT22;52989;48.796;9.806;2022-07-06T15:19:35;23.70;54.20
66184;DHT22;52989;48.796;9.806;2022-07-06T15:22:00;23.80;55.00
66184;DHT22;52989;48.796;9.806;2022-07-06T15:24:26;23.80;54.80
66184;DHT22;52989;48.796;9.806;2022-07-06T15:26:52;24.10;53.60
66184;DHT22;52989;48.796;9.806;2022-07-06T15:29:17;24.00;54.20
66184;DHT22;52989;48.796;9.806;2022-07-06T15:31:43;23.20;53.40
66184;DHT22;52989;48.796;9.806;2022-07-06T15:34:09;23.50;55.10
66184;DHT22;52989;48.796;9.806;2022-07-06T15:36:34;23.80;54.20
66184;DHT22;52989;48.796;9.806;2022-07-06T15:39:01;24.20;55.40
66184;DHT22;52989;48.796;9.806;2022-07-06T15:41:27;24.40;54.40
66184;DHT22;52989;48.796;9.806;2022-07-06T15:43:52;24.30;54.30
66184;DHT22;52989;48.796;9.806;2022-07-06T15:46:18;24.50;53.00
66184;DHT22;52989;48.796;9.806;2022-07-06T15:48:43;24.20;52.30
66184;DHT22;52989;48.796;9.806;2022-07-06T15:51:09;24.20;52.50